Archival Weather

Tokyo Intl

Tokyo Intl, Japan (RJTT)

Report from: Friday, June 24, 2022 11:30 AM JST
Current time: Tuesday, August 16, 2022 3:57 PM JST

Current weather
Weather history
Weather forecast

Temperature30.0°C (86.0°F)
Heat index34.2°C (93.6°F)
Dew point23.0°C (73.4°F)
Winds 19 kts (9.8 m/s, 21.9 mph) South-Southwest (210°)
Wind gusts 34 kts (17.5 m/s, 39.1 mph)
Visibility6.2 mi. (10 km)
Clouds Ceiling: Broken clouds 0 ft. (0 m)
Few clouds 3,000 ft. (914 m)
Altimeter29.68 in.Hg (1005 mB)
Relative humidity66 %
Density altitude2,374 ft. (724 m)
Flight conditions Low Instrument Meteorological Conditions
Raw dataRJTT 240230Z 21019KT 9999 FEW030 BKN/// 30/23 Q1005 TEMPO 20024G34KT
An error has occurred. This application may no longer respond until reloaded. Reload 🗙